createdAt,value
2022-11-03T00:01:14.976Z,52.11
2022-11-03T00:03:42.830Z,51.90
2022-11-03T00:06:10.731Z,52.14
2022-11-03T00:08:41.911Z,52.59
2022-11-03T00:11:12.055Z,52.45
2022-11-03T00:13:41.371Z,52.46
2022-11-03T00:16:10.775Z,52.76
2022-11-03T00:18:39.120Z,52.91
2022-11-03T00:21:09.691Z,53.31
2022-11-03T00:23:40.690Z,53.59
2022-11-03T00:26:11.140Z,53.52
2022-11-03T00:28:39.898Z,53.75
2022-11-03T00:31:10.092Z,53.99
2022-11-03T00:33:38.790Z,54.30
2022-11-03T00:36:08.223Z,54.20
2022-11-03T00:38:37.610Z,54.28
2022-11-03T00:41:07.865Z,54.52
2022-11-03T00:43:36.560Z,54.81
2022-11-03T00:46:06.139Z,54.43
2022-11-03T00:48:34.722Z,54.88
2022-11-03T00:51:08.596Z,54.84
2022-11-03T00:53:38.802Z,55.07
2022-11-03T00:56:11.299Z,55.17
2022-11-03T00:58:39.107Z,55.12
2022-11-03T01:01:09.431Z,55.09
2022-11-03T01:03:39.343Z,55.19
2022-11-03T01:06:25.890Z,55.33
2022-11-03T01:08:53.731Z,55.83
2022-11-03T01:11:42.315Z,56.11
2022-11-03T01:14:11.157Z,56.78
2022-11-03T01:16:39.369Z,57.07
2022-11-03T01:19:07.251Z,58.15
2022-11-03T01:21:35.606Z,58.74
2022-11-03T01:24:03.937Z,59.74
2022-11-03T01:26:33.296Z,60.60
2022-11-03T01:29:01.753Z,61.00
2022-11-03T01:31:30.377Z,62.01
2022-11-03T01:33:58.807Z,62.34
2022-11-03T01:36:27.330Z,62.52
2022-11-03T01:38:56.199Z,63.45
2022-11-03T01:41:26.439Z,63.40
2022-11-03T01:44:27.050Z,63.90
2022-11-03T01:47:00.871Z,64.53
2022-11-03T01:49:34.623Z,64.65
2022-11-03T01:52:07.890Z,65.32
2022-11-03T01:54:37.818Z,65.51
2022-11-03T01:57:10.075Z,65.67
2022-11-03T01:59:40.752Z,65.96
2022-11-03T02:02:09.032Z,66.23
2022-11-03T02:04:37.332Z,66.60
2022-11-03T02:07:15.753Z,67.19
2022-11-03T02:09:43.683Z,66.95
2022-11-03T02:12:11.910Z,68.14
2022-11-03T02:14:45.102Z,67.85
2022-11-03T02:17:15.646Z,68.27
2022-11-03T02:19:48.466Z,68.42
2022-11-03T02:22:36.147Z,68.44
2022-11-03T02:25:15.240Z,69.33
2022-11-03T02:27:45.126Z,69.57
2022-11-03T02:30:13.473Z,69.60
2022-11-03T02:32:50.932Z,70.00
2022-11-03T02:35:24.581Z,70.01
2022-11-03T02:37:56.986Z,70.38
2022-11-03T02:40:30.509Z,70.20
2022-11-03T02:43:02.990Z,70.56
2022-11-03T02:45:32.298Z,70.76
2022-11-03T02:48:03.069Z,71.02
2022-11-03T02:50:33.513Z,71.40
2022-11-03T02:53:01.940Z,71.51
2022-11-03T02:55:36.890Z,71.74
2022-11-03T02:58:13.794Z,71.70
2022-11-03T03:00:50.153Z,71.81
2022-11-03T03:03:22.354Z,71.65
2022-11-03T03:05:54.079Z,71.79
2022-11-03T03:08:24.594Z,71.61
2022-11-03T03:10:54.186Z,71.45
2022-11-03T03:13:25.286Z,70.98
2022-11-03T03:16:05.523Z,70.90
2022-11-03T03:18:43.308Z,70.84
2022-11-03T03:21:16.204Z,70.71
2022-11-03T03:23:49.855Z,70.81
2022-11-03T03:26:25.443Z,71.30
2022-11-03T03:28:58.661Z,71.49
2022-11-03T03:31:28.975Z,71.20
2022-11-03T03:34:04.285Z,71.35
2022-11-03T03:36:36.113Z,71.68
2022-11-03T03:39:08.214Z,71.93
2022-11-03T03:41:39.140Z,72.63
2022-11-03T03:44:11.608Z,73.09
2022-11-03T03:46:43.836Z,73.25
2022-11-03T03:49:11.835Z,73.76
2022-11-03T03:51:40.139Z,74.09
2022-11-03T03:54:07.967Z,74.37
2022-11-03T03:56:42.691Z,74.49
2022-11-03T03:59:11.911Z,75.49
2022-11-03T04:01:39.922Z,75.29
2022-11-03T04:04:07.813Z,75.62
2022-11-03T04:06:35.633Z,76.46
2022-11-03T04:09:03.474Z,76.54
2022-11-03T04:11:48.984Z,76.92
2022-11-03T04:14:35.839Z,77.04
2022-11-03T04:17:21.243Z,77.80
2022-11-03T04:20:06.748Z,77.91
2022-11-03T04:22:35.195Z,78.63
2022-11-03T04:25:03.111Z,79.15
2022-11-03T04:27:34.029Z,79.39
2022-11-03T04:30:14.362Z,79.93
2022-11-03T04:32:42.674Z,80.64
2022-11-03T04:35:18.743Z,81.23
2022-11-03T04:37:49.178Z,81.72
2022-11-03T04:40:18.239Z,82.26
2022-11-03T04:42:47.464Z,83.27
2022-11-03T04:45:30.232Z,83.03
2022-11-03T04:48:00.158Z,83.56
2022-11-03T04:50:28.065Z,84.64
2022-11-03T04:52:58.130Z,84.23
2022-11-03T04:55:26.202Z,84.31
2022-11-03T04:57:58.314Z,85.13
2022-11-03T05:00:27.690Z,85.07
2022-11-03T05:02:56.517Z,86.56
2022-11-03T05:05:27.249Z,85.86
2022-11-03T05:07:56.931Z,85.35
2022-11-03T05:10:27.068Z,85.11
2022-11-03T05:12:56.117Z,85.95
2022-11-03T05:15:36.026Z,86.26
2022-11-03T05:18:14.862Z,86.62
2022-11-03T05:20:46.358Z,85.54
2022-11-03T05:23:15.270Z,85.44
2022-11-03T05:25:46.475Z,85.57
2022-11-03T05:28:23.823Z,83.56
2022-11-03T05:30:53.904Z,81.24
2022-11-03T05:33:29.638Z,80.56
2022-11-03T05:35:59.674Z,78.89
2022-11-03T05:38:31.725Z,78.13
2022-11-03T05:41:00.129Z,77.74
2022-11-03T05:43:29.950Z,76.77
2022-11-03T05:46:02.812Z,76.96
2022-11-03T05:48:34.301Z,76.57
2022-11-03T05:51:11.894Z,76.41
2022-11-03T05:53:43.326Z,75.47
2022-11-03T05:56:17.610Z,74.40
2022-11-03T05:58:46.109Z,72.71
2022-11-03T06:01:21.687Z,73.18
2022-11-03T06:03:49.682Z,72.66
2022-11-03T06:06:22.043Z,72.12
2022-11-03T06:08:50.178Z,71.27
2022-11-03T06:11:26.946Z,71.98
2022-11-03T06:13:57.273Z,71.67
2022-11-03T06:16:44.305Z,71.60
2022-11-03T06:19:29.622Z,70.67
2022-11-03T06:22:00.110Z,69.95
2022-11-03T06:24:32.372Z,69.55
2022-11-03T06:27:00.337Z,69.16
2022-11-03T06:29:31.734Z,67.27
2022-11-03T06:32:01.723Z,66.15
2022-11-03T06:34:40.522Z,65.44
2022-11-03T06:37:22.439Z,65.06
2022-11-03T06:39:52.165Z,64.20
2022-11-03T06:42:26.672Z,64.16
2022-11-03T06:44:57.291Z,63.59
2022-11-03T06:47:28.634Z,63.61
2022-11-03T06:49:59.235Z,64.66
2022-11-03T06:52:29.992Z,63.78
2022-11-03T06:55:33.334Z,64.21
2022-11-03T06:58:05.737Z,63.46
2022-11-03T07:00:35.094Z,64.53
2022-11-03T07:03:10.460Z,64.07
2022-11-03T07:05:40.322Z,63.13
2022-11-03T07:08:19.823Z,63.61
2022-11-03T07:10:48.893Z,63.33
2022-11-03T07:13:20.808Z,63.43
2022-11-03T07:15:48.679Z,63.58
2022-11-03T07:18:23.496Z,62.70
2022-11-03T07:20:53.041Z,61.64
2022-11-03T07:23:24.715Z,61.05
2022-11-03T07:25:54.666Z,61.51
2022-11-03T07:28:25.597Z,61.06
2022-11-03T07:30:53.766Z,60.90
2022-11-03T07:33:27.551Z,60.84
2022-11-03T07:38:47.370Z,59.63
2022-11-03T07:41:19.728Z,59.66
2022-11-03T07:43:52.561Z,59.20
2022-11-03T07:46:22.129Z,58.94
2022-11-03T07:48:54.638Z,58.22
2022-11-03T07:51:25.069Z,57.90
2022-11-03T07:53:56.029Z,57.89
2022-11-03T07:56:26.450Z,57.38
2022-11-03T07:59:00.109Z,56.57
2022-11-03T08:01:30.911Z,56.09
2022-11-03T08:04:05.328Z,55.58
2022-11-03T08:06:33.224Z,55.54
2022-11-03T08:09:01.112Z,55.81
2022-11-03T08:11:29.895Z,55.05
2022-11-03T08:13:58.250Z,55.32
2022-11-03T08:16:26.140Z,56.23
2022-11-03T08:18:54.005Z,55.78
2022-11-03T08:21:23.317Z,55.47
2022-11-03T08:23:51.902Z,54.41
2022-11-03T08:26:19.867Z,54.13
2022-11-03T08:28:47.877Z,54.42
2022-11-03T08:31:15.945Z,53.07
2022-11-03T08:33:43.793Z,53.11
2022-11-03T08:36:11.882Z,52.84
2022-11-03T08:38:41.364Z,52.47
2022-11-03T08:41:09.221Z,51.70
2022-11-03T08:43:37.063Z,51.41
2022-11-03T08:46:13.002Z,50.45
2022-11-03T08:48:44.815Z,50.14
2022-11-03T08:51:13.847Z,50.43
2022-11-03T08:53:43.766Z,50.60
2022-11-03T08:56:13.558Z,50.18
2022-11-03T08:58:44.129Z,50.62
2022-11-03T09:01:12.344Z,50.75
2022-11-03T09:03:40.407Z,49.57
2022-11-03T09:06:09.257Z,49.69
2022-11-03T09:11:26.417Z,49.37
2022-11-03T09:13:54.436Z,48.81
2022-11-03T09:16:22.600Z,49.80
2022-11-03T09:18:50.438Z,48.30
2022-11-03T09:21:18.398Z,48.70
2022-11-03T09:23:46.353Z,47.29
2022-11-03T09:26:14.419Z,47.70
2022-11-03T09:28:43.668Z,46.82
2022-11-03T09:31:11.516Z,47.65
2022-11-03T09:33:39.673Z,47.78
2022-11-03T09:36:08.103Z,48.10
2022-11-03T09:38:35.960Z,47.41
2022-11-03T09:41:09.780Z,47.11
2022-11-03T09:43:49.916Z,46.92
2022-11-03T09:46:19.257Z,47.39
2022-11-03T09:48:47.369Z,47.33
2022-11-03T09:51:20.846Z,46.07
2022-11-03T09:53:49.358Z,46.18
2022-11-03T09:56:20.517Z,45.87
2022-11-03T09:58:54.090Z,45.96
2022-11-03T10:01:22.908Z,46.42
2022-11-03T10:03:51.029Z,46.76
2022-11-03T10:06:21.343Z,45.57
2022-11-03T10:08:50.038Z,45.64
2022-11-03T10:11:18.100Z,45.96
2022-11-03T10:13:49.032Z,46.03
2022-11-03T10:16:21.314Z,45.91
2022-11-03T10:18:49.719Z,44.58
2022-11-03T10:21:20.049Z,45.30
2022-11-03T10:23:50.226Z,45.81
2022-11-03T10:26:20.010Z,45.22
2022-11-03T10:29:02.258Z,45.10
2022-11-03T10:31:36.232Z,44.14
2022-11-03T10:34:05.087Z,44.38
2022-11-03T10:36:33.948Z,43.93
2022-11-03T10:39:25.729Z,43.87
2022-11-03T10:41:58.755Z,43.81
2022-11-03T10:44:28.724Z,43.21
2022-11-03T10:47:00.093Z,43.45
2022-11-03T10:49:30.358Z,43.14
2022-11-03T10:52:09.334Z,42.54
2022-11-03T10:54:38.189Z,42.30
2022-11-03T10:57:06.506Z,41.54
2022-11-03T10:59:37.554Z,40.92
2022-11-03T11:02:16.989Z,41.10
2022-11-03T11:04:45.293Z,40.75
2022-11-03T11:07:26.468Z,39.54
2022-11-03T11:09:55.090Z,38.69
2022-11-03T11:12:24.640Z,38.57
2022-11-03T11:14:58.063Z,38.56
2022-11-03T11:17:43.314Z,37.92
2022-11-03T11:20:44.295Z,37.42
2022-11-03T11:23:52.909Z,37.65
2022-11-03T11:26:33.455Z,38.27
2022-11-03T11:29:44.211Z,37.67
2022-11-03T11:33:00.621Z,37.43
2022-11-03T11:36:05.791Z,37.46
2022-11-03T11:38:59.093Z,36.85
2022-11-03T11:42:05.072Z,36.98
2022-11-03T11:44:48.057Z,36.83
2022-11-03T11:47:31.271Z,36.79
2022-11-03T11:50:18.570Z,36.26
2022-11-03T11:52:49.577Z,36.57
2022-11-03T11:55:21.859Z,36.23
2022-11-03T11:57:49.901Z,36.59
2022-11-03T12:00:23.983Z,35.84
2022-11-03T12:02:52.993Z,35.69
2022-11-03T12:05:23.195Z,35.83
2022-11-03T12:07:51.189Z,35.45
2022-11-03T12:10:23.325Z,35.31
2022-11-03T12:12:51.621Z,34.79
2022-11-03T12:15:51.068Z,35.40
2022-11-03T12:18:37.945Z,34.94
2022-11-03T12:21:09.806Z,34.29
2022-11-03T12:23:41.242Z,34.33
2022-11-03T12:26:40.412Z,34.57
2022-11-03T12:29:08.355Z,34.13
2022-11-03T12:31:37.118Z,33.77
2022-11-03T12:34:05.070Z,33.60
2022-11-03T12:36:32.903Z,33.74
2022-11-03T12:39:00.788Z,34.04
2022-11-03T12:41:29.994Z,33.71
2022-11-03T12:43:57.901Z,34.05
2022-11-03T12:46:25.947Z,34.08
2022-11-03T12:48:53.925Z,33.88
2022-11-03T12:51:23.883Z,34.25
2022-11-03T12:53:52.018Z,34.47
2022-11-03T12:56:20.211Z,34.21
2022-11-03T12:58:49.410Z,34.97
2022-11-03T13:01:17.457Z,34.48
2022-11-03T13:03:45.394Z,34.36
2022-11-03T13:06:14.836Z,34.34
2022-11-03T13:08:44.676Z,34.09
2022-11-03T13:11:28.339Z,33.85
2022-11-03T13:13:58.003Z,33.87
2022-11-03T13:16:25.998Z,33.84
2022-11-03T13:18:53.835Z,33.91
2022-11-03T13:21:21.678Z,34.06
2022-11-03T13:23:49.527Z,34.57
2022-11-03T13:26:17.393Z,34.81
2022-11-03T13:28:45.513Z,34.22
2022-11-03T13:31:14.743Z,35.20
2022-11-03T13:33:42.566Z,35.14
2022-11-03T13:36:44.264Z,35.57
2022-11-03T13:39:12.705Z,35.72
2022-11-03T13:41:40.616Z,36.21
2022-11-03T13:44:08.868Z,36.23
2022-11-03T13:46:38.125Z,36.31
2022-11-03T13:49:52.041Z,36.36
2022-11-03T13:51:54.122Z,36.05
2022-11-03T14:00:01.877Z,36.69
2022-11-03T14:05:21.802Z,37.00
2022-11-03T14:07:49.944Z,37.08
2022-11-03T14:10:18.089Z,37.55
2022-11-03T14:12:45.040Z,37.41
2022-11-03T14:15:14.371Z,37.90
2022-11-03T14:17:43.682Z,37.89
2022-11-03T14:20:13.746Z,38.02
2022-11-03T14:22:42.198Z,38.38
2022-11-03T14:25:10.532Z,38.74
2022-11-03T14:27:38.627Z,38.94
2022-11-03T14:30:07.931Z,39.07
2022-11-03T14:32:35.862Z,38.93
2022-11-03T14:35:05.835Z,38.61
2022-11-03T14:37:33.870Z,38.84
2022-11-03T14:40:01.849Z,38.34
2022-11-03T14:42:31.654Z,39.03
2022-11-03T14:44:59.551Z,39.00
2022-11-03T14:47:30.317Z,39.13
2022-11-03T14:49:58.515Z,40.40
2022-11-03T14:52:27.806Z,40.41
2022-11-03T14:54:55.751Z,40.88
2022-11-03T14:57:23.669Z,40.96
2022-11-03T14:59:53.627Z,40.98
2022-11-03T15:02:22.094Z,40.73
2022-11-03T15:04:50.086Z,40.94
2022-11-03T15:07:17.952Z,41.44
2022-11-03T15:09:47.160Z,41.96
2022-11-03T15:12:15.039Z,42.41
2022-11-03T15:14:42.908Z,42.43
2022-11-03T15:17:10.737Z,42.77
2022-11-03T15:19:38.588Z,43.09
2022-11-03T15:22:06.652Z,43.53
2022-11-03T15:27:23.819Z,43.98
2022-11-03T15:29:51.854Z,44.20
2022-11-03T15:32:19.747Z,44.43
2022-11-03T15:34:47.610Z,44.59
2022-11-03T15:37:15.688Z,44.77
2022-11-03T15:39:43.552Z,45.01
2022-11-03T15:42:11.393Z,45.47
2022-11-03T15:44:40.575Z,45.44
2022-11-03T15:47:08.430Z,45.73
2022-11-03T15:49:36.275Z,46.82
2022-11-03T15:52:04.123Z,47.38
2022-11-03T15:54:31.983Z,47.12
2022-11-03T15:56:59.870Z,47.75
2022-11-03T15:59:27.817Z,48.02
2022-11-03T16:02:08.492Z,48.39
2022-11-03T16:04:44.908Z,48.19
2022-11-03T16:07:12.778Z,49.01
2022-11-03T16:09:40.622Z,49.28
2022-11-03T16:12:09.064Z,49.46
2022-11-03T16:14:36.894Z,49.30
2022-11-03T16:17:06.949Z,50.00
2022-11-03T16:19:34.804Z,49.89
2022-11-03T16:22:02.864Z,49.55
2022-11-03T16:24:35.119Z,50.39
2022-11-03T16:27:03.943Z,51.16
2022-11-03T16:29:31.917Z,51.45
2022-11-03T16:31:59.778Z,51.99
2022-11-03T16:34:29.282Z,52.22
2022-11-03T16:36:57.342Z,52.39
2022-11-03T16:39:25.184Z,52.15
2022-11-03T16:41:55.183Z,51.90
2022-11-03T16:44:23.205Z,51.84
2022-11-03T16:46:51.154Z,51.96
2022-11-03T16:49:19.095Z,52.07
2022-11-03T16:51:48.298Z,52.39
2022-11-03T16:54:16.280Z,52.56
2022-11-03T16:56:44.398Z,52.92
2022-11-03T16:59:13.160Z,53.56
2022-11-03T17:01:42.436Z,54.14
2022-11-03T17:04:11.324Z,54.43
2022-11-03T17:06:39.916Z,54.85
2022-11-03T17:09:13.266Z,55.14
2022-11-03T17:11:42.178Z,55.43
2022-11-03T17:14:13.841Z,55.99
2022-11-03T17:16:45.788Z,56.20
2022-11-03T17:19:14.558Z,56.72
2022-11-03T17:21:43.447Z,56.71
2022-11-03T17:24:13.434Z,56.86
2022-11-03T17:26:52.422Z,57.20
2022-11-03T17:29:23.638Z,57.39
2022-11-03T17:31:52.054Z,57.63
2022-11-03T17:34:24.254Z,58.04
2022-11-03T17:36:53.476Z,58.12
2022-11-03T17:39:28.775Z,58.33
2022-11-03T17:42:07.902Z,59.07
2022-11-03T17:44:35.752Z,60.27
2022-11-03T17:47:03.596Z,61.17
2022-11-03T17:49:31.458Z,61.52
2022-11-03T17:52:00.325Z,62.12
2022-11-03T17:54:31.379Z,62.92
2022-11-03T17:57:01.080Z,63.51
2022-11-03T17:59:29.501Z,64.11
2022-11-03T18:01:57.525Z,63.79
2022-11-03T18:04:25.705Z,64.44
2022-11-03T18:06:53.557Z,64.69
2022-11-03T18:09:21.838Z,64.88
2022-11-03T18:12:08.483Z,64.56
2022-11-03T18:14:36.369Z,65.04
2022-11-03T18:17:04.336Z,64.45
2022-11-03T18:19:32.293Z,64.71
2022-11-03T18:22:00.161Z,65.00
2022-11-03T18:24:28.320Z,64.63
2022-11-03T18:26:57.946Z,64.04
2022-11-03T18:29:25.906Z,63.79
2022-11-03T18:31:53.848Z,63.92
2022-11-03T18:34:25.100Z,63.87
2022-11-03T18:36:53.666Z,63.14
2022-11-03T18:39:25.303Z,63.16
2022-11-03T18:41:53.841Z,63.03
2022-11-03T18:44:25.155Z,62.66
2022-11-03T18:46:55.659Z,62.92
2022-11-03T18:49:25.313Z,62.94
2022-11-03T18:52:02.479Z,62.93
2022-11-03T18:54:33.899Z,62.89
2022-11-03T18:57:02.624Z,63.10
2022-11-03T18:59:35.121Z,63.56
2022-11-03T19:02:03.408Z,63.64
2022-11-03T19:04:32.183Z,63.14
2022-11-03T19:07:00.520Z,63.65
2022-11-03T19:09:28.609Z,63.49
2022-11-03T19:11:58.802Z,63.45
2022-11-03T19:14:32.051Z,63.67
2022-11-03T19:19:53.865Z,63.42
2022-11-03T19:22:23.218Z,63.69
2022-11-03T19:24:51.159Z,63.32
2022-11-03T19:27:22.621Z,63.57
2022-11-03T19:29:50.638Z,63.15
2022-11-03T19:32:25.308Z,63.28
2022-11-03T19:34:57.784Z,63.51
2022-11-03T19:37:31.006Z,63.81
2022-11-03T19:40:02.241Z,64.16
2022-11-03T19:42:29.331Z,64.50
2022-11-03T19:44:58.157Z,64.53
2022-11-03T19:47:32.567Z,65.12
2022-11-03T19:50:02.460Z,65.75
2022-11-03T19:52:31.661Z,65.70
2022-11-03T19:55:02.967Z,65.88
2022-11-03T19:57:30.857Z,66.45
2022-11-03T19:59:59.128Z,66.22
2022-11-03T20:02:29.168Z,66.51
2022-11-03T20:04:57.200Z,66.48
2022-11-03T20:07:30.923Z,67.17
2022-11-03T20:09:59.679Z,66.67
2022-11-03T20:12:27.585Z,67.31
2022-11-03T20:14:55.460Z,67.60
2022-11-03T20:17:24.600Z,68.01
2022-11-03T20:19:54.016Z,68.09
2022-11-03T20:22:31.210Z,68.45
2022-11-03T20:25:03.285Z,69.25
2022-11-03T20:27:31.290Z,69.50
2022-11-03T20:29:59.769Z,69.48
2022-11-03T20:32:27.602Z,70.11
2022-11-03T20:34:57.038Z,69.94
2022-11-03T20:37:24.886Z,70.13
2022-11-03T20:39:52.809Z,70.44
2022-11-03T20:42:23.194Z,70.29
2022-11-03T20:44:51.518Z,70.82
2022-11-03T20:47:20.047Z,70.60
2022-11-03T20:49:48.455Z,70.68
2022-11-03T20:52:17.949Z,70.06
2022-11-03T20:54:46.217Z,70.15
2022-11-03T20:57:14.566Z,70.09
2022-11-03T20:59:42.672Z,70.12
2022-11-03T21:02:14.502Z,71.24
2022-11-03T21:04:44.149Z,70.17
2022-11-03T21:07:13.782Z,70.79
2022-11-03T21:09:43.078Z,71.50
2022-11-03T21:12:14.515Z,71.68
2022-11-03T21:15:05.211Z,72.08
2022-11-03T21:17:50.676Z,71.59
2022-11-03T21:20:18.626Z,72.29
2022-11-03T21:22:52.455Z,72.20
2022-11-03T21:25:24.525Z,72.20
2022-11-03T21:27:53.621Z,72.02
2022-11-03T21:30:21.973Z,72.65
2022-11-03T21:32:49.840Z,72.97
2022-11-03T21:35:21.692Z,73.58
2022-11-03T21:37:49.618Z,73.73
2022-11-03T21:40:17.676Z,73.86
2022-11-03T21:43:04.357Z,74.81
2022-11-03T21:45:32.268Z,75.26
2022-11-03T21:48:18.028Z,75.17
2022-11-03T21:50:46.209Z,75.08
2022-11-03T21:53:14.369Z,75.15
2022-11-03T21:55:42.353Z,75.06
2022-11-03T21:58:11.566Z,75.32
2022-11-03T22:00:39.418Z,75.05
2022-11-03T22:03:07.741Z,75.60
2022-11-03T22:05:35.842Z,75.88
2022-11-03T22:08:03.723Z,75.65
2022-11-03T22:10:31.580Z,76.02
2022-11-03T22:12:59.402Z,76.17
2022-11-03T22:15:46.214Z,76.67
2022-11-03T22:18:14.071Z,76.57
2022-11-03T22:20:59.445Z,76.65
2022-11-03T22:23:44.751Z,76.97
2022-11-03T22:26:32.738Z,77.35
2022-11-03T22:29:18.113Z,77.19
2022-11-03T22:31:47.415Z,77.06
2022-11-03T22:34:32.527Z,77.91
2022-11-03T22:37:00.393Z,78.67
2022-11-03T22:39:45.632Z,77.85
2022-11-03T22:42:31.492Z,78.97
2022-11-03T22:45:16.744Z,79.04
2022-11-03T22:47:45.999Z,79.81
2022-11-03T22:50:14.048Z,79.66
2022-11-03T22:52:41.978Z,79.70
2022-11-03T22:55:09.077Z,80.43
2022-11-03T22:57:36.897Z,80.30
2022-11-03T23:00:06.767Z,81.01
2022-11-03T23:02:34.704Z,81.53
2022-11-03T23:05:07.069Z,81.30
2022-11-03T23:07:40.776Z,81.49
2022-11-03T23:10:09.936Z,82.19
2022-11-03T23:12:37.827Z,82.38
2022-11-03T23:15:29.693Z,82.79
2022-11-03T23:18:15.058Z,83.28
2022-11-03T23:21:01.702Z,83.05
2022-11-03T23:23:47.259Z,83.87
2022-11-03T23:26:15.221Z,84.24
2022-11-03T23:28:43.471Z,84.18
2022-11-03T23:31:11.676Z,84.56
2022-11-03T23:33:39.997Z,84.34
2022-11-03T23:36:11.912Z,85.11
2022-11-03T23:38:40.738Z,85.35
2022-11-03T23:41:11.034Z,85.86
2022-11-03T23:43:39.305Z,86.47
2022-11-03T23:46:24.866Z,86.94
2022-11-03T23:48:53.624Z,87.59
2022-11-03T23:51:24.461Z,87.71
2022-11-03T23:53:53.045Z,88.46
2022-11-03T23:56:39.913Z,88.72
2022-11-03T23:59:08.751Z,89.78
